createdAt,value
2023-01-01T00:01:27.424Z,76.55
2023-01-01T00:03:56.354Z,51.30
2023-01-01T00:06:23.592Z,46.78
2023-01-01T00:09:10.645Z,41.83
2023-01-01T00:11:37.266Z,30.80
2023-01-01T00:14:10.085Z,39.20
2023-01-01T00:16:38.855Z,29.40
2023-01-01T00:19:05.665Z,26.10
2023-01-01T00:21:32.302Z,28.07
2023-01-01T00:23:58.859Z,24.43
2023-01-01T00:26:29.492Z,27.03
2023-01-01T00:29:01.354Z,22.42
2023-01-01T00:31:28.067Z,19.27
2023-01-01T00:33:56.043Z,17.92
2023-01-01T00:36:24.755Z,19.90
2023-01-01T00:38:51.379Z,12.07
2023-01-01T00:41:18.483Z,17.07
2023-01-01T00:43:45.913Z,17.17
2023-01-01T00:46:12.977Z,16.98
2023-01-01T00:48:40.064Z,15.50
2023-01-01T00:51:07.012Z,17.45
2023-01-01T00:53:33.601Z,20.70
2023-01-01T00:56:00.358Z,17.40
2023-01-01T00:58:32.799Z,19.50
2023-01-01T01:00:59.777Z,14.37
2023-01-01T01:03:29.543Z,13.70
2023-01-01T01:06:02.057Z,10.77
2023-01-01T01:08:31.309Z,48.47
2023-01-01T01:11:13.605Z,8.70
2023-01-01T01:13:41.368Z,11.20
2023-01-01T01:16:19.011Z,8.70
2023-01-01T01:18:46.086Z,10.73
2023-01-01T01:21:17.959Z,9.90
2023-01-01T01:23:44.554Z,9.70
2023-01-01T01:26:16.087Z,10.27
2023-01-01T01:28:49.045Z,10.50
2023-01-01T01:31:17.607Z,8.95
2023-01-01T01:33:45.633Z,7.03
2023-01-01T01:36:16.041Z,8.90
2023-01-01T01:38:43.024Z,9.77
2023-01-01T01:41:26.011Z,9.77
2023-01-01T01:44:03.070Z,9.13
2023-01-01T01:46:34.544Z,9.87
2023-01-01T01:49:06.034Z,6.90
2023-01-01T01:51:36.791Z,9.77
2023-01-01T01:54:09.076Z,8.23
2023-01-01T01:56:52.031Z,12.85
2023-01-01T01:59:20.346Z,8.98
2023-01-01T02:01:46.977Z,10.33
2023-01-01T02:04:13.745Z,6.63
2023-01-01T02:06:40.765Z,19.83
2023-01-01T02:09:09.380Z,9.33
2023-01-01T02:11:36.030Z,9.43
2023-01-01T02:14:04.300Z,12.17
2023-01-01T02:16:47.178Z,9.05
2023-01-01T02:19:31.765Z,9.70
2023-01-01T02:22:09.691Z,9.53
2023-01-01T02:24:59.585Z,9.83
2023-01-01T02:28:01.005Z,10.00
2023-01-01T02:30:30.795Z,11.00
2023-01-01T02:33:02.873Z,11.20
2023-01-01T02:35:39.086Z,10.63
2023-01-01T02:38:19.863Z,8.73
2023-01-01T02:40:54.785Z,14.20
2023-01-01T02:43:24.738Z,7.40
2023-01-01T02:45:53.870Z,8.07
2023-01-01T02:48:40.691Z,8.07
2023-01-01T02:51:39.699Z,11.45
2023-01-01T02:54:17.813Z,9.18
2023-01-01T02:57:09.967Z,5.97
2023-01-01T03:00:17.563Z,7.10
2023-01-01T03:02:56.603Z,8.17
2023-01-01T03:05:32.515Z,8.07
2023-01-01T03:08:23.551Z,11.10
2023-01-01T03:11:07.519Z,7.57
2023-01-01T03:13:48.713Z,10.00
2023-01-01T03:16:45.613Z,10.65
2023-01-01T03:19:23.497Z,9.38
2023-01-01T03:22:03.758Z,7.70
2023-01-01T03:24:54.272Z,7.53
2023-01-01T03:27:26.988Z,9.23
2023-01-01T03:29:57.627Z,11.07
2023-01-01T03:32:51.236Z,8.77
2023-01-01T03:35:20.438Z,7.30
2023-01-01T03:37:51.392Z,10.80
2023-01-01T03:40:19.580Z,7.20
2023-01-01T03:43:02.007Z,9.27
2023-01-01T03:45:38.265Z,6.50
2023-01-01T03:48:05.509Z,8.13
2023-01-01T03:51:08.183Z,10.13
2023-01-01T03:53:43.420Z,8.05
2023-01-01T03:56:21.781Z,8.87
2023-01-01T03:58:54.711Z,9.83
2023-01-01T04:01:31.292Z,9.18
2023-01-01T04:04:00.207Z,9.27
2023-01-01T04:06:27.413Z,10.33
2023-01-01T04:08:58.368Z,9.43
2023-01-01T04:11:48.263Z,10.27
2023-01-01T04:14:25.519Z,9.43
2023-01-01T04:16:52.133Z,6.05
2023-01-01T04:19:18.694Z,7.33
2023-01-01T04:21:45.288Z,10.13
2023-01-01T04:24:11.880Z,9.73
2023-01-01T04:26:38.446Z,9.27
2023-01-01T04:29:05.021Z,8.00
2023-01-01T04:31:31.607Z,10.57
2023-01-01T04:33:58.177Z,9.27
2023-01-01T04:36:24.736Z,7.97
2023-01-01T04:38:51.351Z,9.05
2023-01-01T04:41:18.085Z,8.93
2023-01-01T04:43:50.460Z,8.43
2023-01-01T04:46:19.187Z,7.37
2023-01-01T04:48:46.424Z,10.63
2023-01-01T04:51:14.408Z,13.67
2023-01-01T04:53:41.310Z,8.10
2023-01-01T04:56:15.660Z,8.53
2023-01-01T04:58:43.397Z,8.97
2023-01-01T05:01:36.455Z,7.03
2023-01-01T05:04:03.150Z,11.17
2023-01-01T05:06:30.022Z,11.33
2023-01-01T05:08:57.468Z,7.87
2023-01-01T05:11:26.779Z,11.27
2023-01-01T05:13:55.561Z,8.80
2023-01-01T05:16:34.546Z,10.50
2023-01-01T05:19:01.513Z,8.33
2023-01-01T05:21:33.663Z,9.17
2023-01-01T05:24:02.601Z,11.10
2023-01-01T05:26:33.279Z,9.47
2023-01-01T05:29:01.486Z,10.00
2023-01-01T05:31:31.119Z,8.80
2023-01-01T05:36:27.007Z,8.07
2023-01-01T05:38:54.376Z,7.50
2023-01-01T05:41:22.131Z,7.70
2023-01-01T05:43:49.659Z,7.70
2023-01-01T05:46:19.291Z,9.43
2023-01-01T05:48:46.443Z,10.13
2023-01-01T05:51:19.150Z,8.23
2023-01-01T05:53:46.059Z,6.80
2023-01-01T05:56:13.733Z,7.37
2023-01-01T05:58:40.943Z,8.57
2023-01-01T06:01:15.845Z,4.43
2023-01-01T06:03:43.804Z,9.67
2023-01-01T06:06:13.266Z,8.07
2023-01-01T06:08:40.837Z,6.07
2023-01-01T06:11:11.022Z,9.17
2023-01-01T06:13:38.153Z,6.83
2023-01-01T06:16:05.455Z,6.80
2023-01-01T06:18:34.635Z,4.17
2023-01-01T06:21:19.712Z,7.40
2023-01-01T06:23:46.708Z,7.97
2023-01-01T06:26:16.194Z,4.60
2023-01-01T06:28:43.564Z,6.47
2023-01-01T06:31:13.381Z,5.83
2023-01-01T06:33:40.614Z,5.83
2023-01-01T06:36:10.109Z,5.50
2023-01-01T06:38:39.885Z,6.23
2023-01-01T06:41:10.203Z,5.03
2023-01-01T06:43:36.805Z,6.13
2023-01-01T06:46:08.105Z,4.85
2023-01-01T06:48:36.472Z,4.87
2023-01-01T06:51:12.050Z,5.77
2023-01-01T06:53:38.731Z,5.63
2023-01-01T06:56:05.977Z,8.67
2023-01-01T06:58:32.713Z,6.77
2023-01-01T07:01:17.366Z,8.43
2023-01-01T07:03:45.420Z,6.63
2023-01-01T07:06:12.056Z,5.93
2023-01-01T07:08:38.682Z,5.17
2023-01-01T07:11:05.324Z,9.60
2023-01-01T07:13:32.036Z,8.83
2023-01-01T07:15:58.877Z,7.40
2023-01-01T07:18:26.079Z,4.90
2023-01-01T07:20:55.179Z,6.57
2023-01-01T07:23:21.861Z,7.90
2023-01-01T07:25:52.808Z,7.33
2023-01-01T07:28:20.500Z,5.53
2023-01-01T07:30:47.513Z,7.37
2023-01-01T07:33:16.773Z,5.40
2023-01-01T07:35:47.491Z,9.05
2023-01-01T07:38:14.750Z,5.43
2023-01-01T07:40:41.857Z,6.00
2023-01-01T07:43:09.003Z,5.17
2023-01-01T07:45:35.979Z,4.80
2023-01-01T07:48:02.909Z,8.43
2023-01-01T07:50:31.997Z,8.23
2023-01-01T07:52:59.089Z,8.37
2023-01-01T07:55:26.088Z,8.07
2023-01-01T07:57:52.696Z,6.60
2023-01-01T08:00:21.707Z,6.80
2023-01-01T08:02:48.875Z,4.47
2023-01-01T08:05:17.755Z,6.40
2023-01-01T08:07:49.402Z,6.37
2023-01-01T08:10:17.644Z,7.32
2023-01-01T08:12:44.453Z,8.13
2023-01-01T08:15:11.586Z,6.30
2023-01-01T08:17:44.280Z,5.57
2023-01-01T08:20:12.925Z,6.40
2023-01-01T08:22:39.557Z,8.20
2023-01-01T08:25:06.306Z,7.10
2023-01-01T08:27:32.942Z,5.87
2023-01-01T08:29:59.566Z,10.50
2023-01-01T08:32:26.150Z,9.40
2023-01-01T08:34:52.787Z,6.87
2023-01-01T08:37:21.152Z,7.50
2023-01-01T08:39:50.506Z,9.73
2023-01-01T08:42:17.177Z,6.77
2023-01-01T08:44:43.785Z,5.60
2023-01-01T08:47:24.662Z,7.13
2023-01-01T08:49:53.229Z,5.90
2023-01-01T08:52:20.331Z,6.37
2023-01-01T08:54:47.029Z,6.07
2023-01-01T08:57:13.783Z,6.73
2023-01-01T08:59:40.635Z,6.23
2023-01-01T09:02:07.932Z,6.67
2023-01-01T09:04:34.680Z,12.23
2023-01-01T09:07:01.412Z,5.65
2023-01-01T09:09:31.559Z,6.50
2023-01-01T09:12:03.956Z,9.40
2023-01-01T09:14:31.214Z,7.17
2023-01-01T09:16:57.954Z,8.17
2023-01-01T09:19:24.581Z,8.40
2023-01-01T09:21:51.415Z,5.47
2023-01-01T09:24:18.001Z,8.73
2023-01-01T09:26:46.308Z,6.35
2023-01-01T09:29:13.176Z,7.97
2023-01-01T09:31:41.221Z,6.93
2023-01-01T09:34:07.842Z,8.33
2023-01-01T09:36:34.865Z,7.17
2023-01-01T09:39:02.513Z,10.80
2023-01-01T09:41:57.897Z,5.63
2023-01-01T09:44:51.668Z,8.13
2023-01-01T09:47:41.007Z,5.80
2023-01-01T09:50:17.123Z,6.00
2023-01-01T09:52:56.769Z,7.50
2023-01-01T09:55:29.386Z,6.20
2023-01-01T09:57:56.988Z,4.53
2023-01-01T10:00:24.351Z,9.90
2023-01-01T10:03:13.052Z,5.97
2023-01-01T10:05:50.091Z,6.10
2023-01-01T10:08:44.120Z,5.93
2023-01-01T10:11:45.503Z,7.07
2023-01-01T10:14:34.305Z,7.17
2023-01-01T10:17:06.401Z,5.33
2023-01-01T10:19:44.460Z,6.40
2023-01-01T10:22:22.441Z,6.65
2023-01-01T10:25:14.990Z,5.53
2023-01-01T10:27:57.143Z,7.73
2023-01-01T10:30:26.833Z,7.60
2023-01-01T10:32:54.939Z,5.75
2023-01-01T10:35:31.047Z,5.90
2023-01-01T10:38:02.151Z,5.13
2023-01-01T10:40:30.426Z,7.40
2023-01-01T10:42:59.798Z,5.18
2023-01-01T10:45:38.636Z,6.13
2023-01-01T10:48:17.315Z,5.00
2023-01-01T10:50:47.029Z,6.90
2023-01-01T10:53:23.775Z,6.60
2023-01-01T10:55:57.507Z,8.80
2023-01-01T10:58:35.864Z,7.40
2023-01-01T11:01:05.718Z,5.68
2023-01-01T11:03:33.224Z,7.60
2023-01-01T11:06:16.646Z,7.32
2023-01-01T11:08:52.653Z,5.97
2023-01-01T11:11:34.423Z,8.90
2023-01-01T11:14:06.161Z,4.75
2023-01-01T11:16:33.175Z,6.45
2023-01-01T11:19:05.415Z,8.03
2023-01-01T11:21:33.285Z,6.45
2023-01-01T11:24:26.283Z,3.90
2023-01-01T11:26:55.129Z,6.72
2023-01-01T11:29:30.831Z,5.82
2023-01-01T11:32:00.607Z,6.00
2023-01-01T11:34:42.747Z,4.30
2023-01-01T11:37:11.367Z,5.78
2023-01-01T11:39:41.595Z,8.82
2023-01-01T11:42:08.448Z,7.25
2023-01-01T11:44:47.667Z,6.43
2023-01-01T11:47:35.664Z,9.05
2023-01-01T11:50:14.672Z,4.03
2023-01-01T11:52:46.532Z,7.57
2023-01-01T11:55:37.974Z,7.23
2023-01-01T11:58:25.065Z,6.85
2023-01-01T12:00:56.240Z,3.60
2023-01-01T12:03:33.824Z,5.20
2023-01-01T12:06:09.962Z,7.60
2023-01-01T12:08:51.887Z,5.45
2023-01-01T12:11:33.637Z,3.95
2023-01-01T12:14:13.743Z,4.27
2023-01-01T12:17:00.595Z,5.13
2023-01-01T12:19:35.114Z,4.50
2023-01-01T12:22:01.959Z,8.70
2023-01-01T12:24:34.437Z,5.97
2023-01-01T12:27:25.445Z,5.68
2023-01-01T12:30:01.544Z,5.13
2023-01-01T12:33:07.578Z,5.47
2023-01-01T12:36:12.331Z,4.77
2023-01-01T12:39:18.687Z,6.85
2023-01-01T12:42:00.097Z,4.68
2023-01-01T12:45:02.028Z,9.10
2023-01-01T12:47:55.970Z,6.65
2023-01-01T12:50:40.890Z,5.45
2023-01-01T12:53:28.989Z,5.90
2023-01-01T12:56:22.610Z,7.28
2023-01-01T12:59:01.753Z,4.78
2023-01-01T13:01:33.833Z,5.83
2023-01-01T13:04:04.295Z,5.15
2023-01-01T13:06:51.994Z,4.82
2023-01-01T13:09:21.378Z,6.93
2023-01-01T13:11:55.687Z,7.13
2023-01-01T13:14:22.392Z,6.43
2023-01-01T13:16:54.788Z,5.82
2023-01-01T13:19:37.479Z,4.93
2023-01-01T13:22:25.969Z,4.50
2023-01-01T13:25:17.673Z,6.73
2023-01-01T13:28:16.805Z,3.50
2023-01-01T13:30:43.388Z,5.00
2023-01-01T13:33:29.641Z,10.20
2023-01-01T13:36:08.491Z,6.27
2023-01-01T13:38:47.853Z,5.40
2023-01-01T13:41:26.542Z,5.28
2023-01-01T13:44:11.127Z,10.03
2023-01-01T13:46:43.868Z,6.70
2023-01-01T13:49:48.861Z,7.30
2023-01-01T13:52:21.317Z,5.03
2023-01-01T13:55:30.003Z,7.53
2023-01-01T13:58:24.249Z,5.77
2023-01-01T14:01:14.904Z,5.83
2023-01-01T14:03:46.401Z,6.90
2023-01-01T14:06:21.835Z,4.93
2023-01-01T14:09:20.895Z,4.60
2023-01-01T14:11:47.598Z,6.30
2023-01-01T14:14:31.412Z,6.47
2023-01-01T14:17:01.733Z,6.40
2023-01-01T14:19:29.141Z,8.60
2023-01-01T14:21:56.783Z,10.40
2023-01-01T14:24:24.798Z,6.37
2023-01-01T14:26:52.607Z,5.63
2023-01-01T14:29:38.233Z,6.80
2023-01-01T14:32:15.990Z,7.50
2023-01-01T14:34:44.370Z,4.80
2023-01-01T14:37:24.772Z,7.03
2023-01-01T14:40:28.167Z,8.70
2023-01-01T14:43:05.985Z,5.37
2023-01-01T14:45:35.197Z,6.30
2023-01-01T14:48:02.241Z,4.80
2023-01-01T14:50:31.052Z,6.15
2023-01-01T14:53:02.188Z,4.95
2023-01-01T14:55:34.058Z,6.93
2023-01-01T14:58:01.856Z,5.60
2023-01-01T15:00:31.710Z,5.43
2023-01-01T15:03:22.231Z,5.40
2023-01-01T15:06:00.473Z,6.43
2023-01-01T15:08:27.268Z,8.88
2023-01-01T15:10:55.041Z,8.82
2023-01-01T15:13:26.569Z,7.40
2023-01-01T15:15:55.843Z,8.73
2023-01-01T15:18:37.259Z,8.10
2023-01-01T15:21:12.264Z,5.50
2023-01-01T15:23:38.945Z,7.83
2023-01-01T15:26:24.497Z,7.27
2023-01-01T15:28:51.108Z,7.72
2023-01-01T15:31:17.823Z,8.03
2023-01-01T15:33:51.359Z,7.50
2023-01-01T15:36:24.436Z,7.83
2023-01-01T15:38:52.378Z,7.67
2023-01-01T15:41:46.204Z,7.27
2023-01-01T15:44:30.936Z,7.40
2023-01-01T15:47:11.033Z,7.55
2023-01-01T15:49:37.713Z,7.47
2023-01-01T15:52:07.049Z,8.87
2023-01-01T15:54:38.820Z,8.23
2023-01-01T15:57:18.215Z,8.43
2023-01-01T15:59:45.571Z,6.17
2023-01-01T16:02:30.849Z,6.93
2023-01-01T16:04:57.958Z,7.60
2023-01-01T16:07:26.968Z,9.70
2023-01-01T16:09:57.768Z,6.57
2023-01-01T16:12:25.055Z,5.20
2023-01-01T16:14:51.649Z,9.55
2023-01-01T16:17:20.391Z,10.40
2023-01-01T16:19:48.154Z,9.23
2023-01-01T16:22:16.779Z,7.63
2023-01-01T16:24:45.227Z,7.43
2023-01-01T16:27:11.904Z,8.80
2023-01-01T16:29:42.363Z,5.43
2023-01-01T16:32:17.122Z,6.73
2023-01-01T16:34:44.188Z,8.90
2023-01-01T16:37:10.793Z,7.53
2023-01-01T16:39:37.420Z,7.27
2023-01-01T16:42:04.264Z,7.67
2023-01-01T16:44:30.954Z,8.30
2023-01-01T16:46:57.634Z,7.00
2023-01-01T16:49:24.202Z,11.50
2023-01-01T16:51:50.820Z,8.07
2023-01-01T16:54:17.425Z,8.43
2023-01-01T16:56:44.026Z,8.30
2023-01-01T16:59:10.635Z,10.77
2023-01-01T17:01:37.349Z,12.17
2023-01-01T17:04:04.218Z,10.00
2023-01-01T17:06:30.841Z,11.87
2023-01-01T17:09:00.213Z,13.47
2023-01-01T17:11:26.905Z,11.77
2023-01-01T17:13:53.492Z,12.00
2023-01-01T17:16:27.089Z,13.97
2023-01-01T17:21:42.750Z,14.27
2023-01-01T17:24:10.220Z,21.90
2023-01-01T17:26:36.932Z,14.63
2023-01-01T17:29:03.602Z,14.90
2023-01-01T17:31:30.598Z,17.07
2023-01-01T17:33:57.232Z,12.13
2023-01-01T17:36:24.264Z,10.20
2023-01-01T17:38:50.883Z,12.10
2023-01-01T17:41:17.669Z,10.23
2023-01-01T17:43:46.703Z,13.30
2023-01-01T17:46:14.731Z,15.83
2023-01-01T17:48:42.220Z,12.83
2023-01-01T17:51:09.067Z,13.47
2023-01-01T17:53:36.358Z,16.90
2023-01-01T17:56:03.041Z,14.33
2023-01-01T17:58:35.306Z,14.93
2023-01-01T18:01:25.227Z,19.80
2023-01-01T18:03:57.708Z,19.23
2023-01-01T18:06:24.520Z,19.67
2023-01-01T18:08:58.926Z,19.77
2023-01-01T18:11:28.584Z,15.63
2023-01-01T18:13:56.319Z,19.37
2023-01-01T18:16:23.161Z,16.30
2023-01-01T18:18:50.120Z,17.17
2023-01-01T18:21:20.959Z,13.90
2023-01-01T18:23:49.062Z,17.90
2023-01-01T18:26:16.167Z,16.20
2023-01-01T18:28:43.006Z,16.73
2023-01-01T18:31:15.232Z,15.43
2023-01-01T18:33:42.150Z,17.63
2023-01-01T18:36:12.044Z,15.17
2023-01-01T18:38:40.056Z,17.50
2023-01-01T18:41:36.899Z,16.00
2023-01-01T18:44:08.717Z,17.73
2023-01-01T18:46:35.391Z,18.63
2023-01-01T18:49:02.157Z,19.40
2023-01-01T18:51:28.733Z,20.90
2023-01-01T18:53:58.026Z,17.30
2023-01-01T18:56:24.996Z,18.87
2023-01-01T18:58:54.691Z,17.63
2023-01-01T19:01:23.775Z,18.30
2023-01-01T19:03:57.621Z,18.90
2023-01-01T19:06:32.588Z,17.00
2023-01-01T19:09:12.157Z,15.53
2023-01-01T19:11:38.918Z,15.33
2023-01-01T19:14:20.222Z,10.93
2023-01-01T19:16:48.814Z,13.87
2023-01-01T19:19:29.429Z,13.87
2023-01-01T19:22:16.646Z,16.53
2023-01-01T19:24:44.117Z,15.90
2023-01-01T19:27:16.005Z,10.53
2023-01-01T19:29:45.019Z,12.20
2023-01-01T19:32:11.667Z,8.10
2023-01-01T19:34:39.712Z,11.13
2023-01-01T19:37:07.487Z,8.53
2023-01-01T19:39:35.150Z,9.03
2023-01-01T19:42:06.893Z,7.40
2023-01-01T19:44:34.818Z,8.67
2023-01-01T19:47:04.218Z,7.13
2023-01-01T19:49:31.268Z,7.33
2023-01-01T19:51:57.911Z,7.67
2023-01-01T19:54:24.569Z,7.93
2023-01-01T19:56:51.386Z,9.87
2023-01-01T19:59:18.268Z,6.93
2023-01-01T20:01:44.998Z,8.70
2023-01-01T20:04:11.979Z,7.40
2023-01-01T20:06:39.254Z,5.83
2023-01-01T20:09:05.913Z,8.30
2023-01-01T20:11:32.649Z,6.83
2023-01-01T20:13:59.263Z,5.33
2023-01-01T20:16:25.851Z,8.63
2023-01-01T20:18:52.492Z,8.23
2023-01-01T20:21:37.883Z,7.97
2023-01-01T20:24:04.837Z,7.30
2023-01-01T20:26:31.416Z,7.47
2023-01-01T20:29:16.537Z,8.17
2023-01-01T20:31:43.901Z,10.50
2023-01-01T20:34:10.992Z,8.67
2023-01-01T20:36:56.965Z,7.83
2023-01-01T20:39:23.590Z,7.33
2023-01-01T20:41:50.598Z,7.77
2023-01-01T20:44:17.183Z,11.83
2023-01-01T20:46:45.812Z,7.77
2023-01-01T20:49:12.563Z,11.00
2023-01-01T20:51:39.123Z,7.90
2023-01-01T20:54:06.007Z,7.20
2023-01-01T20:56:32.684Z,7.37
2023-01-01T20:59:02.027Z,8.07
2023-01-01T21:01:39.487Z,11.53
2023-01-01T21:04:06.219Z,7.13
2023-01-01T21:06:32.994Z,8.10
2023-01-01T21:08:59.722Z,6.90
2023-01-01T21:11:26.310Z,7.10
2023-01-01T21:13:53.157Z,7.07
2023-01-01T21:16:25.030Z,7.20
2023-01-01T21:18:52.341Z,7.77
2023-01-01T21:21:22.395Z,6.50
2023-01-01T21:23:50.796Z,10.00
2023-01-01T21:26:24.920Z,8.87
2023-01-01T21:28:51.725Z,9.57
2023-01-01T21:31:18.468Z,8.27
2023-01-01T21:33:46.102Z,5.00
2023-01-01T21:36:22.615Z,9.27
2023-01-01T21:38:50.979Z,10.50
2023-01-01T21:41:28.055Z,9.23
2023-01-01T21:43:56.234Z,6.73
2023-01-01T21:46:32.265Z,7.13
2023-01-01T21:49:22.239Z,6.57
2023-01-01T21:51:58.113Z,9.30
2023-01-01T21:54:33.753Z,8.73
2023-01-01T21:57:02.624Z,7.60
2023-01-01T21:59:32.760Z,7.70
2023-01-01T22:02:05.776Z,8.77
2023-01-01T22:04:50.477Z,6.93
2023-01-01T22:10:25.381Z,5.90
2023-01-01T22:12:58.797Z,9.37
2023-01-01T22:15:25.352Z,7.60
2023-01-01T22:18:02.299Z,10.13
2023-01-01T22:20:34.639Z,9.17
2023-01-01T22:23:05.343Z,8.53
2023-01-01T22:25:32.850Z,9.07
2023-01-01T22:28:14.172Z,7.90
2023-01-01T22:30:42.776Z,8.23
2023-01-01T22:33:17.636Z,8.80
2023-01-01T22:35:44.892Z,8.50
2023-01-01T22:38:22.079Z,8.07
2023-01-01T22:40:51.084Z,11.63
2023-01-01T22:43:24.628Z,7.47
2023-01-01T22:45:51.281Z,9.77
2023-01-01T22:48:24.057Z,7.73
2023-01-01T22:50:52.271Z,9.87
2023-01-01T22:53:18.823Z,10.97
2023-01-01T22:55:45.935Z,7.73
2023-01-01T22:58:12.920Z,9.60
2023-01-01T23:00:39.684Z,7.30
2023-01-01T23:03:06.349Z,9.70
2023-01-01T23:05:33.419Z,9.07
2023-01-01T23:08:00.083Z,9.00
2023-01-01T23:10:27.075Z,7.67
2023-01-01T23:12:53.660Z,6.93
2023-01-01T23:15:56.042Z,8.00
2023-01-01T23:18:22.689Z,10.60
2023-01-01T23:20:49.471Z,8.30
2023-01-01T23:23:16.030Z,9.27
2023-01-01T23:25:42.630Z,9.50
2023-01-01T23:28:09.853Z,9.23
2023-01-01T23:30:36.605Z,11.13
2023-01-01T23:33:03.306Z,11.13
2023-01-01T23:35:30.007Z,8.30
2023-01-01T23:37:56.729Z,11.13
2023-01-01T23:40:23.290Z,10.77
2023-01-01T23:42:49.869Z,9.17
2023-01-01T23:45:16.430Z,15.87
2023-01-01T23:47:43.091Z,14.90
2023-01-01T23:50:09.872Z,12.60
2023-01-01T23:52:37.441Z,11.57
2023-01-01T23:55:04.658Z,8.63
2023-01-01T23:57:31.255Z,9.80
2023-01-01T23:59:57.917Z,14.30
